Terminal Aerodrome Forecast
Issued by NWS

Home | Current Version | Previous Version | Graphics & Text | Print | Product List | Glossary On
Versions: 1 2 3 4 5 6 7 8 9 10 11 12 13 14 15 16 17
000
FTUS43 KTOP 290500
TAFMHK
TAF
KMHK 290527Z 2906/3006 32012KT P6SM FEW250
     FM290800 34014G21KT P6SM BKN020
     FM291800 34012KT P6SM SCT025
     FM292300 35006KT P6SM SKC=

USA.gov is the U.S. government's official web portal to all federal, state and local government web resources and services.